Time;durP1;ratioP1;P1;durP2;ratioP2;P2;SDS_P1;SDS_P2;PMS_P1;PMS_P2;Temp;Humidity;BMP_temperature;BMP_pressure;BME280_temperature;BME280_humidity;BME280_pressure;Samples;Min_cycle;Max_cycle;Signal;HPM_P1;HPM_P2
2024/01/13 00:01:54;;;;;;;43.57;24.70;;;;;;;;;;4995666;28;20198;-82
2024/01/13 00:04:21;;;;;;;42.27;25.03;;;;;;;;;;5031248;28;20199;-82
2024/01/13 00:06:47;;;;;;;48.67;26.20;;;;;;;;;;5015550;28;20195;-82
2024/01/13 00:09:13;;;;;;;40.70;24.67;;;;;;;;;;5028950;28;20200;-82
2024/01/13 00:11:39;;;;;;;41.63;24.43;;;;;;;;;;5008699;28;20207;-82
2024/01/13 00:14:05;;;;;;;39.07;23.30;;;;;;;;;;5030296;28;20211;-82
2024/01/13 00:16:31;;;;;;;42.87;25.27;;;;;;;;;;5030067;28;20186;-82
2024/01/13 00:18:57;;;;;;;39.03;23.77;;;;;;;;;;5025817;28;20549;-82
2024/01/13 00:21:23;;;;;;;40.10;23.20;;;;;;;;;;4993183;28;20178;-82
2024/01/13 00:23:50;;;;;;;43.07;24.50;;;;;;;;;;5031739;28;20206;-82
2024/01/13 00:26:16;;;;;;;42.07;24.57;;;;;;;;;;5009182;28;20194;-82
2024/01/13 00:28:42;;;;;;;45.67;24.97;;;;;;;;;;5003174;28;20189;-82
2024/01/13 00:31:08;;;;;;;46.00;25.90;;;;;;;;;;5022380;28;20213;-82
2024/01/13 00:33:34;;;;;;;44.43;24.63;;;;;;;;;;5023065;28;20210;-82
2024/01/13 00:36:00;;;;;;;42.57;24.23;;;;;;;;;;4994010;28;20612;-82
2024/01/13 00:38:26;;;;;;;43.83;29.40;;;;;;;;;;5017697;28;20481;-82
2024/01/13 00:40:52;;;;;;;41.57;25.73;;;;;;;;;;5012917;28;20190;-82
2024/01/13 00:43:19;;;;;;;38.10;23.33;;;;;;;;;;5009162;28;20290;-82
2024/01/13 00:45:45;;;;;;;37.77;23.20;;;;;;;;;;5024118;28;20192;-82
2024/01/13 00:48:11;;;;;;;35.63;22.63;;;;;;;;;;5021761;28;20178;-83
2024/01/13 00:50:37;;;;;;;43.03;24.37;;;;;;;;;;5008536;28;20199;-82
2024/01/13 00:53:04;;;;;;;37.43;23.03;;;;;;;;;;5025936;28;20198;-82
2024/01/13 00:55:30;;;;;;;41.27;24.43;;;;;;;;;;5028048;28;20721;-82
2024/01/13 00:57:56;;;;;;;40.07;24.90;;;;;;;;;;4918421;28;20207;-82
2024/01/13 01:00:22;;;;;;;42.13;25.97;;;;;;;;;;5025339;28;20198;-82
2024/01/13 01:02:48;;;;;;;41.97;24.67;;;;;;;;;;4993546;28;20222;-83
2024/01/13 01:05:14;;;;;;;40.00;24.67;;;;;;;;;;5027354;28;20552;-82
2024/01/13 01:07:40;;;;;;;40.97;26.73;;;;;;;;;;5003544;28;20187;-82
2024/01/13 01:10:07;;;;;;;41.73;25.00;;;;;;;;;;5028011;28;20217;-81
2024/01/13 01:12:33;;;;;;;45.27;27.93;;;;;;;;;;5026652;28;20555;-82
2024/01/13 01:14:59;;;;;;;44.07;26.13;;;;;;;;;;5007901;28;20202;-81
2024/01/13 01:17:26;;;;;;;41.43;26.37;;;;;;;;;;5023953;28;20246;-82
2024/01/13 01:19:52;;;;;;;45.33;27.63;;;;;;;;;;5029537;28;20266;-82
2024/01/13 01:22:18;;;;;;;44.60;27.17;;;;;;;;;;5026586;28;20178;-82
2024/01/13 01:24:44;;;;;;;45.20;26.83;;;;;;;;;;5008945;28;20233;-82
2024/01/13 01:27:10;;;;;;;44.30;26.90;;;;;;;;;;5022435;28;20237;-81
2024/01/13 01:29:36;;;;;;;47.17;27.13;;;;;;;;;;4964584;28;21301;-82
2024/01/13 01:32:02;;;;;;;45.37;25.40;;;;;;;;;;4894270;28;20682;-82
2024/01/13 01:34:29;;;;;;;46.23;26.27;;;;;;;;;;5006563;28;20213;-83
2024/01/13 01:36:55;;;;;;;48.83;27.47;;;;;;;;;;5024707;28;20258;-82
2024/01/13 01:39:21;;;;;;;48.50;27.73;;;;;;;;;;5009771;28;20599;-82
2024/01/13 01:41:47;;;;;;;44.33;25.23;;;;;;;;;;5026122;28;20361;-82
2024/01/13 01:44:13;;;;;;;43.13;24.60;;;;;;;;;;5008143;28;20566;-82
2024/01/13 01:46:39;;;;;;;50.30;27.47;;;;;;;;;;5008808;28;20647;-81
2024/01/13 01:49:06;;;;;;;46.60;26.13;;;;;;;;;;5024087;28;20725;-81
2024/01/13 01:51:33;;;;;;;77.20;37.87;;;;;;;;;;5009537;28;20217;-83
2024/01/13 01:53:59;;;;;;;54.50;29.13;;;;;;;;;;4999726;28;20225;-81
2024/01/13 01:56:27;;;;;;;48.93;27.50;;;;;;;;;;5005582;28;20655;-81
2024/01/13 01:58:53;;;;;;;47.30;26.70;;;;;;;;;;5022885;28;20561;-81
2024/01/13 02:01:20;;;;;;;43.60;25.20;;;;;;;;;;5005605;28;20341;-81
2024/01/13 02:03:47;;;;;;;40.23;23.57;;;;;;;;;;5023204;28;20578;-81
2024/01/13 02:06:13;;;;;;;44.10;25.17;;;;;;;;;;5026800;28;20646;-82
2024/01/13 02:08:40;;;;;;;41.27;24.17;;;;;;;;;;5018840;28;20305;-81
2024/01/13 02:11:07;;;;;;;39.93;23.63;;;;;;;;;;5026556;28;20183;-84
2024/01/13 02:13:33;;;;;;;42.17;22.90;;;;;;;;;;5010526;28;20211;-83
2024/01/13 02:15:59;;;;;;;42.27;24.83;;;;;;;;;;5004251;28;20507;-81
2024/01/13 02:18:25;;;;;;;53.30;28.93;;;;;;;;;;5005571;28;20206;-81
2024/01/13 02:20:51;;;;;;;50.77;28.00;;;;;;;;;;5041667;28;20213;-81
2024/01/13 02:23:18;;;;;;;44.57;26.33;;;;;;;;;;5032026;28;20692;-81
2024/01/13 02:25:44;;;;;;;42.83;25.47;;;;;;;;;;5011533;28;20201;-81
2024/01/13 02:28:10;;;;;;;44.67;25.63;;;;;;;;;;5032247;28;20238;-81
2024/01/13 02:30:36;;;;;;;38.80;24.27;;;;;;;;;;5013591;28;20189;-81
2024/01/13 02:33:02;;;;;;;41.90;25.33;;;;;;;;;;5024619;28;20202;-81
2024/01/13 02:35:28;;;;;;;43.47;25.50;;;;;;;;;;5025722;28;20696;-81
2024/01/13 02:37:55;;;;;;;40.07;24.87;;;;;;;;;;5010712;28;20268;-82
2024/01/13 02:40:21;;;;;;;44.67;25.10;;;;;;;;;;5027440;28;20669;-82
2024/01/13 02:42:47;;;;;;;42.77;25.37;;;;;;;;;;5011559;28;20701;-81
2024/01/13 02:45:13;;;;;;;43.20;25.63;;;;;;;;;;4994109;28;20187;-82
2024/01/13 02:47:43;;;;;;;45.77;27.27;;;;;;;;;;5006750;28;20190;-80
2024/01/13 02:50:10;;;;;;;42.43;25.17;;;;;;;;;;5024353;28;20186;-81
2024/01/13 02:52:36;;;;;;;41.83;24.67;;;;;;;;;;5022271;28;20190;-82
2024/01/13 02:55:02;;;;;;;44.87;26.00;;;;;;;;;;5031974;28;20289;-82
2024/01/13 02:57:28;;;;;;;40.60;25.17;;;;;;;;;;5027001;28;20664;-81
2024/01/13 02:59:54;;;;;;;45.13;26.47;;;;;;;;;;5009580;28;20288;-81
2024/01/13 03:02:20;;;;;;;46.90;26.57;;;;;;;;;;4977690;28;20179;-81
2024/01/13 03:04:47;;;;;;;46.37;26.40;;;;;;;;;;5011986;28;20276;-81
2024/01/13 03:07:13;;;;;;;44.03;25.53;;;;;;;;;;5032347;28;20654;-81
2024/01/13 03:09:39;;;;;;;50.70;28.73;;;;;;;;;;5034126;28;20641;-81
2024/01/13 03:12:05;;;;;;;47.53;26.43;;;;;;;;;;5042194;28;20292;-81
2024/01/13 03:14:31;;;;;;;45.47;26.73;;;;;;;;;;5039739;28;20221;-82
2024/01/13 03:16:58;;;;;;;51.30;28.00;;;;;;;;;;5020992;28;20297;-81
2024/01/13 03:19:24;;;;;;;51.63;28.27;;;;;;;;;;5013448;28;20657;-81
2024/01/13 03:21:50;;;;;;;49.07;28.17;;;;;;;;;;4995155;28;20190;-81
2024/01/13 03:24:17;;;;;;;49.57;26.97;;;;;;;;;;5003484;28;20211;-81
2024/01/13 03:26:43;;;;;;;48.20;27.90;;;;;;;;;;4993059;28;20329;-81
2024/01/13 03:29:09;;;;;;;47.10;27.53;;;;;;;;;;5024256;28;20179;-81
2024/01/13 03:31:36;;;;;;;51.53;27.57;;;;;;;;;;5026275;28;20240;-82
2024/01/13 03:34:02;;;;;;;51.50;29.13;;;;;;;;;;5026942;28;20194;-81
2024/01/13 03:36:28;;;;;;;54.10;28.83;;;;;;;;;;5026720;28;21325;-81
2024/01/13 03:38:56;;;;;;;48.40;27.70;;;;;;;;;;5022876;28;20210;-81
2024/01/13 03:41:23;;;;;;;76.90;38.87;;;;;;;;;;4993435;28;20659;-81
2024/01/13 03:43:49;;;;;;;64.67;33.17;;;;;;;;;;5012429;28;20218;-81
2024/01/13 03:46:16;;;;;;;59.30;29.87;;;;;;;;;;4992949;28;20278;-81
2024/01/13 03:48:42;;;;;;;52.80;28.57;;;;;;;;;;5006074;28;20670;-81
2024/01/13 03:51:09;;;;;;;50.63;26.53;;;;;;;;;;5023815;28;20547;-81
2024/01/13 03:53:35;;;;;;;54.53;27.97;;;;;;;;;;5010729;28;21381;-81
2024/01/13 03:56:03;;;;;;;56.10;29.47;;;;;;;;;;5008167;28;20281;-81
2024/01/13 03:58:30;;;;;;;53.60;26.70;;;;;;;;;;5018787;28;20238;-81
2024/01/13 04:00:56;;;;;;;49.80;27.13;;;;;;;;;;5006182;28;20241;-81
2024/01/13 04:03:22;;;;;;;52.73;27.33;;;;;;;;;;5019974;28;20759;-81
2024/01/13 04:05:48;;;;;;;52.93;27.07;;;;;;;;;;5029387;28;20183;-81
2024/01/13 04:08:14;;;;;;;57.37;28.33;;;;;;;;;;5006569;28;20187;-81
2024/01/13 04:10:40;;;;;;;52.90;27.47;;;;;;;;;;5005363;28;20576;-81
2024/01/13 04:13:10;;;;;;;51.03;27.40;;;;;;;;;;4964427;28;20218;-81
2024/01/13 04:15:36;;;;;;;51.13;28.37;;;;;;;;;;4975106;28;20190;-81
2024/01/13 04:18:02;;;;;;;54.30;27.90;;;;;;;;;;5016520;28;20220;-81
2024/01/13 04:20:29;;;;;;;54.03;28.60;;;;;;;;;;5009049;28;20603;-81
2024/01/13 04:22:55;;;;;;;55.07;27.70;;;;;;;;;;4997613;28;20589;-81
2024/01/13 04:25:21;;;;;;;53.03;26.73;;;;;;;;;;5021400;28;20194;-81
2024/01/13 04:27:48;;;;;;;57.90;27.93;;;;;;;;;;5022644;28;20698;-81
2024/01/13 04:30:14;;;;;;;52.83;27.20;;;;;;;;;;5004806;28;20179;-81
2024/01/13 04:32:42;;;;;;;50.60;27.37;;;;;;;;;;5021905;28;20186;-81
2024/01/13 04:35:08;;;;;;;53.43;26.23;;;;;;;;;;5020499;28;20175;-81
2024/01/13 04:37:34;;;;;;;51.37;26.20;;;;;;;;;;5020401;28;20258;-81
2024/01/13 04:40:00;;;;;;;53.83;27.37;;;;;;;;;;5021791;28;20193;-80
2024/01/13 04:42:27;;;;;;;49.87;25.30;;;;;;;;;;5004153;28;20500;-80
2024/01/13 04:44:53;;;;;;;48.57;24.83;;;;;;;;;;5029785;28;20199;-81
2024/01/13 04:47:19;;;;;;;46.83;24.87;;;;;;;;;;5000389;28;20225;-81
2024/01/13 04:49:45;;;;;;;51.50;24.83;;;;;;;;;;5027140;28;20194;-81
2024/01/13 04:52:12;;;;;;;47.13;25.40;;;;;;;;;;5025897;28;20244;-80
2024/01/13 04:54:38;;;;;;;44.40;23.73;;;;;;;;;;5022196;28;20242;-82
2024/01/13 04:57:04;;;;;;;48.20;24.23;;;;;;;;;;5007091;28;20203;-81
2024/01/13 04:59:30;;;;;;;44.37;22.97;;;;;;;;;;5024621;28;20670;-81
2024/01/13 05:01:56;;;;;;;42.73;22.67;;;;;;;;;;5000509;28;20235;-81
2024/01/13 05:04:23;;;;;;;45.20;23.53;;;;;;;;;;5020882;28;20696;-81
2024/01/13 05:06:49;;;;;;;44.27;22.97;;;;;;;;;;5023812;28;20178;-82
2024/01/13 05:09:16;;;;;;;46.07;23.07;;;;;;;;;;5020567;28;20622;-81
2024/01/13 05:11:42;;;;;;;40.90;21.60;;;;;;;;;;4990926;28;20212;-82
2024/01/13 05:14:08;;;;;;;42.20;22.43;;;;;;;;;;4987481;28;20198;-83
2024/01/13 05:16:34;;;;;;;39.23;20.93;;;;;;;;;;5027376;28;20789;-82
2024/01/13 05:19:00;;;;;;;38.53;20.87;;;;;;;;;;5021874;28;20179;-82
2024/01/13 05:21:26;;;;;;;38.93;21.73;;;;;;;;;;5022621;28;20292;-81
2024/01/13 05:23:52;;;;;;;33.20;19.57;;;;;;;;;;5021699;28;20218;-83
2024/01/13 05:26:18;;;;;;;37.27;20.13;;;;;;;;;;5023952;28;20182;-82
2024/01/13 05:28:45;;;;;;;38.40;20.23;;;;;;;;;;5008229;28;20186;-81
2024/01/13 05:31:11;;;;;;;38.43;20.03;;;;;;;;;;4987990;28;20199;-81
2024/01/13 05:33:37;;;;;;;41.70;22.23;;;;;;;;;;5005921;28;20202;-82
2024/01/13 05:36:03;;;;;;;42.00;23.17;;;;;;;;;;5028609;28;20261;-81
2024/01/13 05:38:29;;;;;;;39.47;22.20;;;;;;;;;;5025230;28;20206;-81
2024/01/13 05:40:55;;;;;;;37.43;21.50;;;;;;;;;;5011593;28;20329;-81
2024/01/13 05:43:22;;;;;;;39.13;22.60;;;;;;;;;;5004857;28;20240;-82
2024/01/13 05:45:48;;;;;;;41.70;23.33;;;;;;;;;;5025756;28;20567;-81
2024/01/13 05:48:14;;;;;;;42.37;23.43;;;;;;;;;;4999271;28;20187;-81
2024/01/13 05:50:40;;;;;;;41.47;22.83;;;;;;;;;;5023141;28;20599;-81
2024/01/13 05:53:06;;;;;;;41.03;22.33;;;;;;;;;;5026656;28;20632;-82
2024/01/13 05:55:32;;;;;;;38.20;21.90;;;;;;;;;;5003358;28;20686;-81
2024/01/13 05:57:58;;;;;;;39.80;22.80;;;;;;;;;;5004234;28;20333;-81
2024/01/13 06:00:24;;;;;;;37.93;20.93;;;;;;;;;;5030591;28;20269;-81
2024/01/13 06:02:51;;;;;;;37.27;20.63;;;;;;;;;;5007014;28;20232;-81
2024/01/13 06:05:17;;;;;;;37.87;21.33;;;;;;;;;;5022658;28;20254;-82
2024/01/13 06:07:43;;;;;;;35.17;20.73;;;;;;;;;;5024859;28;20193;-81
2024/01/13 06:10:10;;;;;;;36.77;20.93;;;;;;;;;;5023176;28;20191;-81
2024/01/13 06:12:36;;;;;;;35.97;19.80;;;;;;;;;;5028395;28;20187;-81
2024/01/13 06:15:02;;;;;;;35.73;20.60;;;;;;;;;;5028602;28;20674;-81
2024/01/13 06:17:28;;;;;;;35.97;20.57;;;;;;;;;;5010417;28;20237;-82
2024/01/13 06:19:54;;;;;;;33.80;22.95;;;;;;;;;;5031591;28;20412;-82
2024/01/13 06:22:20;;;;;;;32.90;20.17;;;;;;;;;;5027509;28;20186;-82
2024/01/13 06:24:46;;;;;;;33.97;20.77;;;;;;;;;;5003139;28;20596;-81
2024/01/13 06:27:13;;;;;;;34.20;20.60;;;;;;;;;;5022005;28;20218;-82
2024/01/13 06:29:39;;;;;;;32.27;19.57;;;;;;;;;;5021607;28;20690;-82
2024/01/13 06:32:05;;;;;;;34.87;20.33;;;;;;;;;;5024450;28;20425;-81
2024/01/13 06:34:31;;;;;;;34.07;20.40;;;;;;;;;;5032243;28;20217;-81
2024/01/13 06:36:57;;;;;;;34.80;20.23;;;;;;;;;;5027261;28;20210;-82
2024/01/13 06:39:23;;;;;;;33.83;19.03;;;;;;;;;;4983452;28;20257;-82
2024/01/13 06:41:49;;;;;;;34.57;20.50;;;;;;;;;;5016495;28;20286;-81
2024/01/13 06:44:16;;;;;;;35.40;20.30;;;;;;;;;;5019185;28;20253;-81
2024/01/13 06:46:42;;;;;;;33.23;20.00;;;;;;;;;;5021409;28;20194;-82
2024/01/13 06:49:08;;;;;;;32.93;19.80;;;;;;;;;;5025272;28;20604;-82
2024/01/13 06:51:34;;;;;;;36.03;20.33;;;;;;;;;;5008979;28;20709;-81
2024/01/13 06:54:01;;;;;;;32.10;19.33;;;;;;;;;;5021030;28;20201;-82
2024/01/13 06:56:27;;;;;;;32.60;19.33;;;;;;;;;;5006044;28;20191;-82
2024/01/13 06:58:53;;;;;;;38.17;22.27;;;;;;;;;;5007411;28;20207;-81
2024/01/13 07:01:19;;;;;;;35.47;20.67;;;;;;;;;;4990919;28;20270;-82
2024/01/13 07:03:46;;;;;;;37.87;22.70;;;;;;;;;;5018500;28;20289;-82
2024/01/13 07:06:13;;;;;;;40.33;22.97;;;;;;;;;;4998528;28;20589;-82
2024/01/13 07:08:39;;;;;;;35.43;20.83;;;;;;;;;;5027844;28;20187;-81
2024/01/13 07:11:12;;;;;;;37.77;21.37;;;;;;;;;;5019640;28;20187;-82
2024/01/13 07:13:38;;;;;;;37.43;22.37;;;;;;;;;;4990768;28;20214;-83
2024/01/13 07:16:04;;;;;;;34.80;20.60;;;;;;;;;;4987116;28;20205;-81
2024/01/13 07:18:31;;;;;;;36.17;21.33;;;;;;;;;;5000542;28;20272;-84
2024/01/13 07:20:57;;;;;;;36.13;23.65;;;;;;;;;;5026616;28;20489;-84
2024/01/13 07:23:23;;;;;;;37.60;21.60;;;;;;;;;;5008681;28;20334;-84
2024/01/13 07:25:49;;;;;;;34.53;20.67;;;;;;;;;;5031272;28;20197;-83
2024/01/13 07:28:15;;;;;;;33.23;20.23;;;;;;;;;;5009121;28;20198;-84
2024/01/13 07:30:41;;;;;;;38.47;21.93;;;;;;;;;;5026048;28;20194;-82
2024/01/13 07:33:07;;;;;;;36.97;21.03;;;;;;;;;;5030231;28;20678;-84
2024/01/13 07:35:35;;;;;;;38.17;21.77;;;;;;;;;;5019202;28;20250;-83
2024/01/13 07:38:01;;;;;;;37.00;21.17;;;;;;;;;;5027127;28;20242;-84
2024/01/13 07:40:27;;;;;;;35.43;21.20;;;;;;;;;;5024737;28;20179;-86
2024/01/13 07:42:54;;;;;;;35.37;20.90;;;;;;;;;;5030638;28;20221;-81
2024/01/13 07:45:20;;;;;;;37.10;21.80;;;;;;;;;;5022097;28;20171;-82
2024/01/13 07:47:46;;;;;;;33.03;19.00;;;;;;;;;;5009446;28;20218;-85
2024/01/13 07:50:12;;;;;;;36.53;21.47;;;;;;;;;;4998901;28;20640;-85
2024/01/13 07:52:38;;;;;;;39.07;22.10;;;;;;;;;;5011788;28;20189;-82
2024/01/13 07:55:05;;;;;;;39.00;23.07;;;;;;;;;;5028056;28;20854;-83
2024/01/13 07:57:31;;;;;;;37.57;21.53;;;;;;;;;;5011599;28;20219;-81
2024/01/13 07:59:57;;;;;;;38.43;21.40;;;;;;;;;;5026144;28;20211;-79
2024/01/13 08:02:23;;;;;;;37.03;21.17;;;;;;;;;;5011706;28;20584;-79
2024/01/13 08:04:49;;;;;;;37.93;21.43;;;;;;;;;;5027981;28;20521;-78
2024/01/13 08:07:16;;;;;;;39.63;22.20;;;;;;;;;;5031053;28;20295;-79
2024/01/13 08:09:43;;;;;;;37.63;21.83;;;;;;;;;;5029050;28;20716;-79
2024/01/13 08:12:09;;;;;;;36.30;21.90;;;;;;;;;;5026568;28;20209;-79
2024/01/13 08:14:35;;;;;;;40.20;22.37;;;;;;;;;;4977657;28;20479;-80
2024/01/13 08:17:01;;;;;;;37.17;21.33;;;;;;;;;;5017831;28;20217;-80
2024/01/13 08:19:27;;;;;;;36.67;21.97;;;;;;;;;;5031111;28;20190;-81
2024/01/13 08:21:53;;;;;;;38.13;22.70;;;;;;;;;;5028678;28;20551;-81
2024/01/13 08:24:19;;;;;;;42.60;23.93;;;;;;;;;;5016266;28;20206;-80
2024/01/13 08:26:46;;;;;;;39.33;22.63;;;;;;;;;;4992041;28;20190;-80
2024/01/13 08:29:12;;;;;;;39.23;23.40;;;;;;;;;;5020769;28;20234;-80
2024/01/13 08:31:38;;;;;;;38.87;22.50;;;;;;;;;;5028578;28;20193;-81
2024/01/13 08:34:04;;;;;;;36.63;23.27;;;;;;;;;;5003915;28;21273;-80
2024/01/13 08:36:31;;;;;;;35.77;20.97;;;;;;;;;;5013650;28;20187;-76
2024/01/13 08:38:57;;;;;;;39.03;22.73;;;;;;;;;;5009496;28;20194;-78
2024/01/13 08:41:23;;;;;;;36.50;21.37;;;;;;;;;;5031146;28;20715;-84
2024/01/13 08:43:49;;;;;;;38.20;20.70;;;;;;;;;;5011853;28;20567;-84
2024/01/13 08:46:15;;;;;;;37.13;22.77;;;;;;;;;;5030333;28;20293;-83
2024/01/13 08:48:41;;;;;;;40.10;24.43;;;;;;;;;;5028166;28;20186;-83
2024/01/13 08:51:08;;;;;;;39.63;23.37;;;;;;;;;;5029089;28;20205;-83
2024/01/13 08:53:34;;;;;;;38.07;21.97;;;;;;;;;;5010592;28;20325;-83
2024/01/13 08:56:00;;;;;;;36.43;22.13;;;;;;;;;;5012843;28;20333;-83
2024/01/13 08:58:26;;;;;;;36.30;22.10;;;;;;;;;;5010822;28;20227;-84
2024/01/13 09:00:56;;;;;;;35.63;22.27;;;;;;;;;;4998160;28;20286;-83
2024/01/13 09:03:22;;;;;;;40.43;22.77;;;;;;;;;;5030873;28;20755;-84
2024/01/13 09:05:49;;;;;;;37.17;22.07;;;;;;;;;;5011349;28;20182;-83
2024/01/13 09:08:15;;;;;;;37.60;22.77;;;;;;;;;;5010586;28;20191;-82
2024/01/13 09:10:41;;;;;;;37.03;21.30;;;;;;;;;;4996676;28;20209;-85
2024/01/13 09:13:07;;;;;;;39.80;22.93;;;;;;;;;;5004395;28;20504;-85
2024/01/13 09:15:33;;;;;;;40.43;22.73;;;;;;;;;;5030279;28;20199;-85
2024/01/13 09:18:02;;;;;;;38.53;22.90;;;;;;;;;;5032591;28;20228;-85
2024/01/13 09:20:29;;;;;;;42.07;23.50;;;;;;;;;;5011484;28;20547;-85
2024/01/13 09:22:55;;;;;;;37.63;21.67;;;;;;;;;;5033961;28;20187;-85
2024/01/13 09:25:21;;;;;;;43.97;25.00;;;;;;;;;;5015780;28;20255;-85
2024/01/13 09:27:47;;;;;;;39.03;21.87;;;;;;;;;;4997522;28;20191;-85
2024/01/13 09:30:15;;;;;;;36.63;21.50;;;;;;;;;;5018041;28;20187;-85
2024/01/13 09:32:42;;;;;;;36.13;21.30;;;;;;;;;;5016896;28;20233;-85
2024/01/13 09:35:08;;;;;;;38.10;21.60;;;;;;;;;;5017048;28;20302;-84
2024/01/13 09:37:35;;;;;;;36.77;21.03;;;;;;;;;;5000686;28;20206;-85
2024/01/13 09:40:01;;;;;;;33.93;20.93;;;;;;;;;;5012124;28;20255;-85
2024/01/13 09:42:29;;;;;;;37.70;22.20;;;;;;;;;;5031885;28;20647;-85
2024/01/13 09:44:56;;;;;;;38.97;21.70;;;;;;;;;;5015078;28;20211;-85
2024/01/13 09:47:22;;;;;;;35.07;20.60;;;;;;;;;;4999295;28;20198;-84
2024/01/13 09:49:51;;;;;;;37.23;20.57;;;;;;;;;;5035486;28;20372;-85
2024/01/13 09:52:18;;;;;;;38.17;22.67;;;;;;;;;;5022618;28;20217;-85
2024/01/13 09:54:46;;;;;;;38.80;22.33;;;;;;;;;;5022533;28;20685;-86
2024/01/13 09:57:13;;;;;;;38.33;21.50;;;;;;;;;;5037226;28;20258;-85
2024/01/13 09:59:41;;;;;;;39.20;22.13;;;;;;;;;;5015389;28;20186;-85
2024/01/13 10:02:13;;;;;;;39.23;21.57;;;;;;;;;;5009340;28;20187;-86
2024/01/13 10:04:40;;;;;;;39.63;21.57;;;;;;;;;;5033593;28;20191;-85
2024/01/13 10:07:09;;;;;;;37.87;22.40;;;;;;;;;;5036081;28;20651;-85
2024/01/13 10:09:36;;;;;;;38.77;20.80;;;;;;;;;;5017487;28;20217;-86
2024/01/13 10:12:06;;;;;;;34.53;21.10;;;;;;;;;;5017421;28;20195;-85
2024/01/13 10:14:33;;;;;;;35.37;21.40;;;;;;;;;;5034776;28;20780;-86
2024/01/13 10:17:04;;;;;;;40.03;21.50;;;;;;;;;;4993638;28;20220;-86
2024/01/13 10:19:30;;;;;;;36.13;20.23;;;;;;;;;;5014572;28;20182;-85
2024/01/13 10:21:57;;;;;;;38.57;21.00;;;;;;;;;;5012749;28;20265;-85
2024/01/13 10:24:23;;;;;;;34.83;19.90;;;;;;;;;;5027565;28;20568;-85
2024/01/13 10:26:49;;;;;;;39.17;20.50;;;;;;;;;;5001750;28;20186;-85
2024/01/13 10:29:15;;;;;;;31.73;19.50;;;;;;;;;;5014382;28;20190;-85
2024/01/13 10:31:41;;;;;;;32.50;19.00;;;;;;;;;;4998333;28;20187;-86
2024/01/13 10:34:11;;;;;;;33.83;19.87;;;;;;;;;;5003804;28;20213;-85
2024/01/13 10:36:38;;;;;;;32.90;19.87;;;;;;;;;;5008793;28;20719;-85
2024/01/13 10:39:05;;;;;;;30.47;17.77;;;;;;;;;;5025261;28;20484;-85
2024/01/13 10:41:31;;;;;;;33.60;19.67;;;;;;;;;;5006744;28;20186;-85
2024/01/13 10:44:00;;;;;;;33.33;19.63;;;;;;;;;;5012861;28;20211;-85
2024/01/13 10:46:27;;;;;;;31.60;18.67;;;;;;;;;;5028239;28;20217;-85
2024/01/13 10:48:59;;;;;;;31.97;18.80;;;;;;;;;;5009835;28;20214;-85
2024/01/13 10:51:37;;;;;;;30.27;18.27;;;;;;;;;;5011862;28;20218;-85
2024/01/13 10:54:06;;;;;;;30.73;17.67;;;;;;;;;;4997128;28;20289;-85
2024/01/13 10:56:35;;;;;;;30.30;17.90;;;;;;;;;;5011075;28;20286;-85
2024/01/13 10:59:02;;;;;;;29.70;18.17;;;;;;;;;;5000751;28;20804;-85
2024/01/13 11:01:28;;;;;;;29.57;17.37;;;;;;;;;;5011272;28;20268;-85
2024/01/13 11:03:56;;;;;;;30.10;17.30;;;;;;;;;;4977082;28;20260;-85
2024/01/13 11:06:22;;;;;;;29.20;18.47;;;;;;;;;;4996699;28;20666;-85
2024/01/13 11:08:49;;;;;;;27.60;16.83;;;;;;;;;;5011379;28;20205;-85
2024/01/13 11:11:18;;;;;;;29.57;17.37;;;;;;;;;;4964857;28;20201;-85
2024/01/13 11:13:46;;;;;;;27.07;16.50;;;;;;;;;;4991455;28;20214;-83
2024/01/13 11:16:18;;;;;;;29.67;17.40;;;;;;;;;;4980495;28;20191;-85
2024/01/13 11:18:49;;;;;;;31.73;18.17;;;;;;;;;;4962943;28;20233;-85
2024/01/13 11:21:22;;;;;;;30.73;17.67;;;;;;;;;;5020791;28;20179;-84
2024/01/13 11:23:58;;;;;;;30.80;16.77;;;;;;;;;;5033130;28;20207;-84
2024/01/13 11:26:32;;;;;;;27.73;16.13;;;;;;;;;;4990293;28;20182;-83
2024/01/13 11:28:58;;;;;;;27.63;16.50;;;;;;;;;;4998889;28;20252;-84
2024/01/13 11:31:37;;;;;;;28.90;17.23;;;;;;;;;;5006985;28;20244;-84
2024/01/13 11:34:05;;;;;;;27.83;16.50;;;;;;;;;;4986399;28;20241;-85
2024/01/13 11:36:35;;;;;;;27.67;16.73;;;;;;;;;;4992331;28;20186;-80
2024/01/13 11:39:01;;;;;;;27.87;16.20;;;;;;;;;;5028558;28;20210;-81
2024/01/13 11:41:44;;;;;;;31.67;16.70;;;;;;;;;;4989695;28;20182;-79
2024/01/13 11:44:11;;;;;;;29.47;16.57;;;;;;;;;;5000188;28;20198;-82
2024/01/13 11:46:38;;;;;;;26.77;16.20;;;;;;;;;;4977098;28;20289;-81
2024/01/13 11:49:07;;;;;;;24.90;15.53;;;;;;;;;;4978263;28;20189;-82
2024/01/13 11:51:52;;;;;;;28.50;16.40;;;;;;;;;;4986284;28;20225;-81
2024/01/13 11:54:18;;;;;;;26.83;15.40;;;;;;;;;;5004051;28;20578;-77
2024/01/13 11:56:45;;;;;;;24.17;13.77;;;;;;;;;;5015835;28;20209;-80
2024/01/13 11:59:11;;;;;;;24.97;14.67;;;;;;;;;;4993142;28;20202;-79
2024/01/13 12:01:37;;;;;;;27.63;15.17;;;;;;;;;;4992280;28;20256;-81
2024/01/13 12:04:03;;;;;;;25.27;15.23;;;;;;;;;;4991177;28;20320;-83
2024/01/13 12:06:30;;;;;;;23.40;14.47;;;;;;;;;;4990112;28;20232;-79
2024/01/13 12:08:56;;;;;;;23.63;13.70;;;;;;;;;;5024092;28;20560;-80
2024/01/13 12:11:22;;;;;;;24.47;13.77;;;;;;;;;;4990666;28;20179;-80
2024/01/13 12:13:48;;;;;;;23.90;14.23;;;;;;;;;;4973822;28;20225;-78
2024/01/13 12:16:16;;;;;;;25.47;14.40;;;;;;;;;;4969273;28;20649;-81
2024/01/13 12:18:46;;;;;;;22.70;12.87;;;;;;;;;;5000695;28;20689;-83
2024/01/13 12:21:13;;;;;;;23.07;13.40;;;;;;;;;;4993391;28;20225;-82
2024/01/13 12:23:39;;;;;;;22.40;13.13;;;;;;;;;;4982545;28;20264;-82
2024/01/13 12:26:06;;;;;;;21.30;12.67;;;;;;;;;;4998307;28;20305;-83
2024/01/13 12:28:32;;;;;;;21.07;12.57;;;;;;;;;;4970482;28;20273;-83
2024/01/13 12:31:02;;;;;;;20.87;12.63;;;;;;;;;;4994024;28;20197;-83
2024/01/13 12:33:28;;;;;;;19.27;12.03;;;;;;;;;;4977599;28;20202;-83
2024/01/13 12:35:59;;;;;;;22.60;14.10;;;;;;;;;;5025057;28;20182;-82
2024/01/13 12:38:27;;;;;;;20.27;12.67;;;;;;;;;;4973776;28;20222;-83
2024/01/13 12:40:53;;;;;;;18.90;11.73;;;;;;;;;;4989637;28;20261;-83
2024/01/13 12:43:20;;;;;;;19.00;11.53;;;;;;;;;;4998491;28;20258;-83
2024/01/13 12:45:49;;;;;;;15.40;10.27;;;;;;;;;;4983252;28;20273;-82
2024/01/13 12:48:16;;;;;;;15.13;10.17;;;;;;;;;;5039838;28;20226;-81
2024/01/13 12:50:43;;;;;;;15.70;9.40;;;;;;;;;;4993367;28;20281;-83
2024/01/13 12:53:09;;;;;;;16.10;9.43;;;;;;;;;;4991845;28;20199;-83
2024/01/13 12:55:36;;;;;;;16.27;9.83;;;;;;;;;;4999912;28;20569;-83
2024/01/13 12:58:03;;;;;;;13.63;8.47;;;;;;;;;;5001280;28;20702;-83
2024/01/13 13:00:29;;;;;;;13.63;8.27;;;;;;;;;;4974659;28;20198;-76
2024/01/13 13:02:59;;;;;;;13.40;8.37;;;;;;;;;;5028268;28;20642;-75
2024/01/13 13:05:25;;;;;;;14.07;8.40;;;;;;;;;;4977518;28;20206;-80
2024/01/13 13:07:51;;;;;;;12.80;8.00;;;;;;;;;;4964848;28;20206;-79
2024/01/13 13:10:21;;;;;;;14.43;8.20;;;;;;;;;;4991356;28;20233;-77
2024/01/13 13:12:47;;;;;;;12.10;8.33;;;;;;;;;;4985242;28;20558;-75
2024/01/13 13:15:14;;;;;;;11.13;7.37;;;;;;;;;;5000579;28;20281;-81
2024/01/13 13:17:41;;;;;;;11.50;7.37;;;;;;;;;;4977361;28;20214;-83
2024/01/13 13:20:08;;;;;;;10.47;7.03;;;;;;;;;;4992358;28;20553;-79
2024/01/13 13:22:37;;;;;;;11.07;6.97;;;;;;;;;;4991667;28;20187;-83
2024/01/13 13:25:09;;;;;;;9.50;6.70;;;;;;;;;;4975330;28;20325;-83
2024/01/13 13:27:36;;;;;;;10.03;7.10;;;;;;;;;;4986750;28;21985;-83
2024/01/13 13:30:04;;;;;;;9.97;7.03;;;;;;;;;;5005297;28;20714;-80
2024/01/13 13:32:30;;;;;;;9.37;6.73;;;;;;;;;;4995750;28;20214;-79
2024/01/13 13:34:57;;;;;;;9.83;7.03;;;;;;;;;;4972325;28;20477;-78
2024/01/13 13:37:23;;;;;;;13.97;10.60;;;;;;;;;;4977953;28;20289;-80
2024/01/13 13:39:49;;;;;;;14.03;9.67;;;;;;;;;;4989859;28;20210;-79
2024/01/13 13:42:16;;;;;;;14.53;10.27;;;;;;;;;;5025073;28;20233;-77
2024/01/13 13:44:42;;;;;;;11.77;8.40;;;;;;;;;;4997169;28;20749;-78
2024/01/13 13:47:08;;;;;;;11.00;7.60;;;;;;;;;;5005706;28;20529;-82
2024/01/13 13:49:34;;;;;;;9.70;7.10;;;;;;;;;;4998065;28;20185;-79
2024/01/13 13:52:01;;;;;;;9.70;7.10;;;;;;;;;;4989042;28;20179;-80
2024/01/13 13:54:27;;;;;;;10.57;7.47;;;;;;;;;;4989340;28;20209;-79
2024/01/13 13:56:53;;;;;;;10.87;7.10;;;;;;;;;;5016880;28;20189;-78
2024/01/13 13:59:19;;;;;;;10.17;7.10;;;;;;;;;;4982817;28;20289;-79
2024/01/13 14:01:46;;;;;;;10.10;7.17;;;;;;;;;;4970422;28;20678;-78
2024/01/13 14:04:12;;;;;;;10.40;7.30;;;;;;;;;;4975991;28;20337;-81
2024/01/13 14:06:38;;;;;;;11.37;7.27;;;;;;;;;;4982878;28;20870;-79
2024/01/13 14:09:05;;;;;;;10.07;7.17;;;;;;;;;;4998962;28;20234;-80
2024/01/13 14:11:36;;;;;;;9.63;6.97;;;;;;;;;;4983633;28;20199;-80
2024/01/13 14:14:06;;;;;;;10.67;7.60;;;;;;;;;;4985648;28;21473;-79
2024/01/13 14:16:32;;;;;;;11.10;7.50;;;;;;;;;;4989219;28;20285;-79